Time;durP1;ratioP1;P1;durP2;ratioP2;P2;SDS_P1;SDS_P2;PMS_P1;PMS_P2;Temp;Humidity;BMP_temperature;BMP_pressure;BME280_temperature;BME280_humidity;BME280_pressure;Samples;Min_cycle;Max_cycle;Signal;HPM_P1;HPM_P2
2022/06/12 00:00:17;;;;;;;4.72;2.72;;;21.10;99.90;;;;;;7391269;19;20141;-75
2022/06/12 00:02:43;;;;;;;3.72;2.20;;;20.70;99.90;;;;;;7389474;19;20131;-75
2022/06/12 00:05:11;;;;;;;4.13;2.58;;;20.70;99.90;;;;;;7388776;19;20154;-76
2022/06/12 00:07:36;;;;;;;3.05;2.30;;;20.50;99.90;;;;;;7390805;19;20195;-74
2022/06/12 00:10:03;;;;;;;3.53;2.60;;;20.30;99.90;;;;;;7391899;19;20559;-75
2022/06/12 00:12:29;;;;;;;3.53;2.15;;;20.60;99.90;;;;;;7385929;19;20142;-74
2022/06/12 00:14:55;;;;;;;3.70;2.78;;;20.60;99.90;;;;;;7388800;19;20149;-74
2022/06/12 00:17:22;;;;;;;3.95;2.45;;;20.30;99.90;;;;;;7391759;19;20146;-75
2022/06/12 00:19:49;;;;;;;3.97;2.55;;;20.00;99.90;;;;;;7391426;19;20154;-74
2022/06/12 00:22:16;;;;;;;3.90;2.30;;;19.80;99.90;;;;;;7389669;19;20146;-75
2022/06/12 00:24:42;;;;;;;4.20;2.85;;;19.90;99.90;;;;;;7391350;19;20150;-75
2022/06/12 00:27:08;;;;;;;3.55;2.80;;;19.90;99.90;;;;;;7388817;19;20130;-76
2022/06/12 00:29:36;;;;;;;4.40;3.28;;;19.80;99.90;;;;;;7390750;19;20238;-74
2022/06/12 00:32:12;;;;;;;6.18;3.42;;;19.80;99.90;;;;;;7387099;19;20556;-74
2022/06/12 00:34:45;;;;;;;4.55;3.00;;;19.80;99.90;;;;;;7392170;19;20174;-76
2022/06/12 00:37:13;;;;;;;7.22;2.83;;;19.70;99.90;;;;;;7387203;19;20221;-74
2022/06/12 00:39:44;;;;;;;4.43;2.42;;;19.60;99.90;;;;;;7391227;19;20146;-75
2022/06/12 00:42:27;;;;;;;4.88;2.63;;;19.70;99.90;;;;;;7395281;19;20628;-75
2022/06/12 00:44:57;;;;;;;3.75;2.63;;;19.70;99.90;;;;;;7386645;19;20150;-74
2022/06/12 00:47:23;;;;;;;6.72;2.60;;;19.70;99.90;;;;;;7392470;19;20144;-75
2022/06/12 00:49:55;;;;;;;3.80;2.55;;;19.70;99.90;;;;;;7390011;19;20127;-75
2022/06/12 00:52:40;;;;;;;3.95;2.60;;;19.90;99.90;;;;;;7389907;19;20130;-74
2022/06/12 00:55:24;;;;;;;4.18;2.75;;;20.20;99.90;;;;;;7391324;19;20166;-76
2022/06/12 00:57:54;;;;;;;8.05;2.90;;;20.20;99.90;;;;;;7389552;19;20266;-76
2022/06/12 01:00:20;;;;;;;3.53;2.60;;;20.00;99.90;;;;;;7389068;19;20138;-74
2022/06/12 01:02:46;;;;;;;4.93;3.20;;;19.70;99.90;;;;;;7389474;19;20730;-75
2022/06/12 01:08:04;;;;;;;3.45;2.72;;;20.10;99.90;;;;;;7390134;19;20158;-75
2022/06/12 01:10:31;;;;;;;5.78;3.10;;;20.30;99.90;;;;;;7391999;19;20138;-76
2022/06/12 01:13:13;;;;;;;5.65;3.30;;;20.40;99.90;;;;;;7385653;19;20146;-75
2022/06/12 01:15:48;;;;;;;7.65;2.90;;;20.00;99.90;;;;;;7386817;19;20134;-75
2022/06/12 01:18:16;;;;;;;3.85;2.88;;;19.70;99.90;;;;;;7388971;19;20142;-75
2022/06/12 01:21:04;;;;;;;4.07;3.08;;;19.50;99.90;;;;;;7387370;19;20168;-74
2022/06/12 01:23:53;;;;;;;4.38;2.78;;;19.80;99.90;;;;;;7390638;19;20150;-75
2022/06/12 01:26:34;;;;;;;3.40;3.03;;;20.00;99.90;;;;;;7390356;19;20562;-74
2022/06/12 01:29:12;;;;;;;4.18;3.38;;;20.20;99.90;;;;;;7387300;19;20150;-76
2022/06/12 01:31:52;;;;;;;4.40;3.28;;;20.10;99.90;;;;;;7387742;19;20602;-76
2022/06/12 01:34:44;;;;;;;4.60;3.20;;;20.30;99.90;;;;;;7390568;19;20598;-76
2022/06/12 01:37:35;;;;;;;4.55;3.53;;;20.30;99.90;;;;;;7388331;19;20142;-76
2022/06/12 01:40:16;;;;;;;3.17;2.88;;;19.60;99.90;;;;;;7387248;19;20131;-76
2022/06/12 01:42:54;;;;;;;4.78;2.67;;;19.20;99.90;;;;;;7387492;19;20134;-75
2022/06/12 01:45:47;;;;;;;5.03;3.50;;;19.10;99.90;;;;;;7385175;19;20141;-74
2022/06/12 01:48:53;;;;;;;4.30;2.88;;;19.30;99.90;;;;;;7392606;19;20173;-74
2022/06/12 01:51:30;;;;;;;4.28;3.42;;;19.30;99.90;;;;;;7399234;19;20138;-74
2022/06/12 01:54:13;;;;;;;6.68;3.72;;;19.00;99.90;;;;;;7391419;19;20146;-75
2022/06/12 01:56:42;;;;;;;7.80;3.38;;;19.20;99.90;;;;;;7393902;19;20154;-75
2022/06/12 01:59:33;;;;;;;4.82;3.25;;;19.40;99.90;;;;;;7395530;19;20205;-76
2022/06/12 02:02:24;;;;;;;3.78;3.10;;;19.50;99.90;;;;;;7394988;19;20250;-76
2022/06/12 02:05:13;;;;;;;4.80;3.05;;;19.40;99.90;;;;;;7395025;19;20155;-75
2022/06/12 02:07:44;;;;;;;5.20;2.95;;;19.60;99.90;;;;;;7399616;19;20163;-74
2022/06/12 02:10:23;;;;;;;3.50;2.78;;;19.70;99.90;;;;;;7393698;19;20146;-76
2022/06/12 02:13:11;;;;;;;4.53;3.03;;;19.30;99.90;;;;;;7393861;19;20592;-76
2022/06/12 02:15:43;;;;;;;4.20;3.22;;;19.10;99.90;;;;;;7400024;19;20155;-74
2022/06/12 02:18:23;;;;;;;4.32;3.08;;;19.40;99.90;;;;;;7395248;19;20162;-75
2022/06/12 02:21:22;;;;;;;4.05;3.47;;;19.40;99.90;;;;;;7397207;19;20144;-76
2022/06/12 02:23:54;;;;;;;5.50;3.35;;;19.40;99.90;;;;;;7389809;19;20178;-76
2022/06/12 02:26:37;;;;;;;4.38;3.28;;;19.40;99.90;;;;;;7390540;19;20170;-76
2022/06/12 02:29:15;;;;;;;3.50;2.88;;;19.20;99.90;;;;;;7392664;19;20163;-76
2022/06/12 02:31:45;;;;;;;6.13;3.33;;;19.40;99.90;;;;;;7393504;19;20138;-75
2022/06/12 02:34:22;;;;;;;3.60;3.17;;;19.60;99.90;;;;;;7395286;19;20517;-74
2022/06/12 02:36:52;;;;;;;4.78;3.30;;;19.80;99.90;;;;;;7396691;19;20135;-75
2022/06/12 02:39:27;;;;;;;5.10;3.45;;;19.80;99.90;;;;;;7392562;19;20238;-75
2022/06/12 02:42:02;;;;;;;3.47;3.03;;;19.80;99.90;;;;;;7394517;19;20496;-74
2022/06/12 02:44:57;;;;;;;4.97;3.13;;;19.90;99.90;;;;;;7393952;19;20130;-76
2022/06/12 02:47:31;;;;;;;5.13;3.45;;;19.90;99.90;;;;;;7392713;19;20142;-76
2022/06/12 02:49:58;;;;;;;8.18;3.22;;;19.80;99.90;;;;;;7394658;19;20133;-73
2022/06/12 02:52:42;;;;;;;6.80;3.30;;;19.90;99.90;;;;;;7395418;19;20221;-76
2022/06/12 02:55:25;;;;;;;5.15;3.08;;;19.90;99.90;;;;;;7396803;19;20138;-75
2022/06/12 02:57:55;;;;;;;7.53;3.50;;;20.00;99.90;;;;;;7388117;19;20155;-75
2022/06/12 03:00:35;;;;;;;5.78;3.38;;;20.00;99.90;;;;;;7393808;19;20182;-73
2022/06/12 03:03:27;;;;;;;4.10;3.13;;;19.90;99.90;;;;;;7390204;19;20155;-76
2022/06/12 03:05:57;;;;;;;5.05;3.45;;;19.80;99.90;;;;;;7394253;19;20134;-76
2022/06/12 03:08:27;;;;;;;5.38;3.10;;;19.30;99.90;;;;;;7391712;19;20147;-74
2022/06/12 03:11:07;;;;;;;5.55;3.30;;;19.10;99.90;;;;;;7395438;19;20520;-74
2022/06/12 03:13:33;;;;;;;8.27;3.67;;;18.90;99.90;;;;;;7390799;19;20594;-74
2022/06/12 03:16:13;;;;;;;5.25;3.50;;;18.80;99.90;;;;;;7393155;19;20214;-74
2022/06/12 03:18:43;;;;;;;4.93;3.25;;;18.90;99.90;;;;;;7395027;19;20167;-74
2022/06/12 03:21:39;;;;;;;4.15;3.25;;;18.60;99.90;;;;;;7389880;19;20537;-76
2022/06/12 03:24:05;;;;;;;5.72;3.20;;;18.60;99.90;;;;;;7393179;19;20529;-76
2022/06/12 03:27:04;;;;;;;5.45;3.08;;;18.70;99.90;;;;;;7394135;19;20146;-74
2022/06/12 03:30:12;;;;;;;3.58;3.15;;;18.70;99.90;;;;;;7385046;19;20959;-76
2022/06/12 03:32:41;;;;;;;5.30;3.42;;;18.90;99.90;;;;;;7387546;19;20182;-74
2022/06/12 03:35:10;;;;;;;3.92;2.92;;;19.10;99.90;;;;;;7391668;19;20206;-75
2022/06/12 03:37:55;;;;;;;5.28;3.60;;;19.20;99.90;;;;;;7394994;19;20134;-74
2022/06/12 03:40:23;;;;;;;4.95;3.50;;;19.40;99.90;;;;;;7392353;19;20138;-74
2022/06/12 03:43:26;;;;;;;3.45;3.15;;;19.50;99.90;;;;;;7391689;19;20139;-74
2022/06/12 03:46:02;;;;;;;5.65;3.40;;;19.40;99.90;;;;;;7388793;19;20135;-75
2022/06/12 03:48:41;;;;;;;5.40;3.35;;;19.40;99.90;;;;;;7394151;19;20552;-75
2022/06/12 03:51:18;;;;;;;4.50;3.25;;;19.40;99.90;;;;;;7392613;19;20156;-76
2022/06/12 03:53:50;;;;;;;4.00;3.30;;;19.50;99.90;;;;;;7392729;19;20154;-76
2022/06/12 03:59:40;;;;;;;4.35;3.03;;;19.40;99.90;;;;;;7388806;19;20153;-75
2022/06/12 04:02:08;;;;;;;4.60;3.42;;;19.50;99.90;;;;;;7392093;19;20210;-75
2022/06/12 04:04:36;;;;;;;3.55;3.22;;;19.50;99.90;;;;;;7392908;19;20154;-75
2022/06/12 04:07:06;;;;;;;4.93;3.33;;;19.60;99.90;;;;;;7389518;19;20480;-75
2022/06/12 04:09:36;;;;;;;4.38;3.42;;;19.60;99.90;;;;;;7390714;19;20544;-76
2022/06/12 04:12:15;;;;;;;6.80;3.30;;;19.50;99.90;;;;;;7392494;19;20143;-76
2022/06/12 04:15:13;;;;;;;3.72;2.72;;;19.50;99.90;;;;;;7394197;19;20530;-76
2022/06/12 04:17:40;;;;;;;6.25;3.00;;;19.50;99.90;;;;;;7383932;19;20222;-75
2022/06/12 04:20:11;;;;;;;4.20;2.63;;;19.50;99.90;;;;;;7393532;19;20158;-75
2022/06/12 04:23:01;;;;;;;4.20;2.88;;;19.50;99.90;;;;;;7392332;19;20138;-75
2022/06/12 04:25:53;;;;;;;3.40;2.38;;;19.40;99.90;;;;;;7393599;19;20138;-76
2022/06/12 04:28:25;;;;;;;3.75;2.88;;;19.40;99.90;;;;;;7385035;19;20556;-75
2022/06/12 04:30:51;;;;;;;6.90;2.75;;;19.40;99.90;;;;;;7391566;19;20248;-76
2022/06/12 04:33:34;;;;;;;3.35;2.50;;;19.30;99.90;;;;;;7387853;19;20194;-75
2022/06/12 04:36:02;;;;;;;4.18;2.60;;;19.40;99.90;;;;;;7390240;19;20210;-74
2022/06/12 04:38:30;;;;;;;2.85;2.58;;;19.40;99.90;;;;;;7390770;19;20141;-75
2022/06/12 04:40:56;;;;;;;3.03;2.40;;;19.50;99.90;;;;;;7388850;19;20194;-75
2022/06/12 04:43:22;;;;;;;2.85;2.50;;;19.50;99.90;;;;;;7390001;19;20135;-75
2022/06/12 04:45:48;;;;;;;3.00;2.50;;;19.40;99.90;;;;;;7390267;19;20145;-75
2022/06/12 04:48:22;;;;;;;3.97;2.58;;;19.40;99.90;;;;;;7388858;19;20469;-75
2022/06/12 04:50:48;;;;;;;3.75;2.42;;;19.50;99.90;;;;;;7387548;19;20169;-75
2022/06/12 04:53:14;;;;;;;4.85;3.08;;;19.60;99.90;;;;;;7390455;19;20559;-75
2022/06/12 04:55:39;;;;;;;3.22;2.58;;;19.50;99.90;;;;;;7392275;19;20151;-75
2022/06/12 04:58:06;;;;;;;4.15;2.78;;;19.40;99.90;;;;;;7390525;19;20160;-75
2022/06/12 05:00:34;;;;;;;5.22;2.78;;;19.50;99.90;;;;;;7387037;19;20144;-75
2022/06/12 05:03:00;;;;;;;3.90;2.95;;;19.40;99.90;;;;;;7388625;19;20135;-75
2022/06/12 05:05:26;;;;;;;4.07;2.65;;;19.40;99.90;;;;;;7391549;19;20127;-75
2022/06/12 05:07:53;;;;;;;5.22;3.17;;;19.50;99.90;;;;;;7388735;19;20118;-76
2022/06/12 05:10:19;;;;;;;4.20;2.75;;;19.50;99.90;;;;;;7389714;19;20131;-75
2022/06/12 05:12:45;;;;;;;3.38;2.65;;;19.50;99.90;;;;;;7383860;19;20167;-75
2022/06/12 05:15:14;;;;;;;5.10;3.00;;;19.50;99.90;;;;;;7391075;19;20138;-76
2022/06/12 05:17:46;;;;;;;4.95;2.92;;;19.60;99.90;;;;;;7384012;19;20159;-75
2022/06/12 05:20:23;;;;;;;5.20;3.15;;;19.70;99.90;;;;;;7388430;19;20182;-75
2022/06/12 05:22:49;;;;;;;5.57;3.38;;;19.70;99.90;;;;;;7387386;19;20146;-75
2022/06/12 05:25:16;;;;;;;4.97;3.53;;;19.70;99.90;;;;;;7386663;19;20174;-74
2022/06/12 05:27:45;;;;;;;4.70;3.08;;;19.70;99.90;;;;;;7391269;19;20146;-74
2022/06/12 05:30:24;;;;;;;3.83;3.20;;;19.70;99.90;;;;;;7386929;19;20146;-75
2022/06/12 05:32:52;;;;;;;3.83;3.10;;;19.70;99.90;;;;;;7390230;19;20147;-75
2022/06/12 05:35:20;;;;;;;6.70;4.05;;;19.60;99.90;;;;;;7387807;19;20142;-74
2022/06/12 05:37:46;;;;;;;4.45;3.40;;;19.70;99.90;;;;;;7389457;19;20586;-75
2022/06/12 05:40:15;;;;;;;4.38;3.47;;;19.60;99.90;;;;;;7389632;19;20150;-75
2022/06/12 05:42:42;;;;;;;3.70;3.20;;;19.70;99.90;;;;;;7389457;19;20159;-75
2022/06/12 05:45:15;;;;;;;4.22;3.40;;;19.80;99.90;;;;;;7388354;19;20514;-76
2022/06/12 05:47:45;;;;;;;4.07;3.35;;;19.70;99.90;;;;;;7387487;19;20154;-75
2022/06/12 05:50:11;;;;;;;4.43;3.30;;;19.70;99.90;;;;;;7387514;19;20139;-75
2022/06/12 05:52:37;;;;;;;6.65;3.10;;;19.70;99.90;;;;;;7387120;19;20143;-73
2022/06/12 05:55:04;;;;;;;3.50;3.15;;;19.80;99.90;;;;;;7391416;19;20232;-75
2022/06/12 05:57:29;;;;;;;6.20;3.35;;;19.90;99.90;;;;;;7390437;19;20598;-74
2022/06/12 05:59:57;;;;;;;4.53;3.40;;;20.00;99.90;;;;;;7388937;19;20146;-74
2022/06/12 06:02:22;;;;;;;4.40;3.45;;;20.00;99.90;;;;;;7387028;19;20138;-74
2022/06/12 06:04:48;;;;;;;4.07;3.20;;;20.00;99.90;;;;;;7385325;19;20158;-74
2022/06/12 06:07:14;;;;;;;4.18;3.00;;;20.00;99.90;;;;;;7390428;19;20171;-75
2022/06/12 06:09:40;;;;;;;6.50;3.20;;;20.10;99.90;;;;;;7390599;19;20214;-76
2022/06/12 06:12:06;;;;;;;3.60;2.92;;;20.30;99.90;;;;;;7386554;19;20139;-74
2022/06/12 06:14:31;;;;;;;4.70;3.10;;;21.20;99.90;;;;;;7389966;19;20143;-73
2022/06/12 06:16:57;;;;;;;5.13;3.20;;;22.00;99.90;;;;;;7390242;19;20539;-75
2022/06/12 06:19:23;;;;;;;3.45;3.15;;;22.50;99.90;;;;;;7387258;19;20180;-75
2022/06/12 06:21:49;;;;;;;4.63;2.78;;;22.70;99.90;;;;;;7388781;19;20759;-76
2022/06/12 06:24:15;;;;;;;5.47;3.40;;;23.30;99.90;;;;;;7386862;19;20139;-75
2022/06/12 06:26:43;;;;;;;4.50;3.03;;;23.80;99.90;;;;;;7388256;19;20159;-76
2022/06/12 06:29:09;;;;;;;4.15;3.13;;;24.20;99.90;;;;;;7384055;19;20150;-73
2022/06/12 06:31:35;;;;;;;4.15;3.05;;;24.60;99.90;;;;;;7387571;19;20151;-75
2022/06/12 06:34:02;;;;;;;3.97;2.95;;;25.10;99.90;;;;;;7385434;19;20143;-75
2022/06/12 06:36:28;;;;;;;4.22;2.70;;;25.50;99.90;;;;;;7391603;19;20135;-75
2022/06/12 06:38:55;;;;;;;4.90;3.40;;;25.70;99.90;;;;;;7395539;19;20143;-75
2022/06/12 06:41:22;;;;;;;2.97;2.75;;;25.70;99.90;;;;;;7393769;19;20174;-76
2022/06/12 06:46:32;;;;;;;4.63;2.97;;;25.50;99.90;;;;;;7396173;19;20159;-76
2022/06/12 06:48:58;;;;;;;2.90;2.50;;;25.50;99.90;;;;;;7392690;19;20130;-75
2022/06/12 06:51:24;;;;;;;6.25;2.80;;;25.60;99.90;;;;;;7394640;19;20145;-74
2022/06/12 06:53:49;;;;;;;3.80;2.75;;;25.80;99.90;;;;;;7395690;19;20658;-74
2022/06/12 06:56:15;;;;;;;2.72;2.50;;;25.70;99.90;;;;;;7392037;19;20139;-76
2022/06/12 06:58:43;;;;;;;4.00;2.70;;;25.70;99.90;;;;;;7395778;19;20139;-75
2022/06/12 07:01:09;;;;;;;5.13;2.90;;;25.60;99.90;;;;;;7391116;19;20149;-75
2022/06/12 07:03:35;;;;;;;2.95;2.42;;;25.90;99.90;;;;;;7391287;19;20147;-75
2022/06/12 07:06:02;;;;;;;2.30;2.10;;;26.30;99.90;;;;;;7393209;19;20139;-77
2022/06/12 07:08:28;;;;;;;4.30;2.40;;;26.70;99.90;;;;;;7392130;19;20139;-76
2022/06/12 07:10:56;;;;;;;4.22;2.42;;;27.40;99.90;;;;;;7395349;19;20163;-74
2022/06/12 07:13:23;;;;;;;6.50;2.25;;;27.10;99.90;;;;;;7392223;19;20657;-75
2022/06/12 07:15:50;;;;;;;4.55;2.47;;;26.90;99.90;;;;;;7394716;19;20202;-74
2022/06/12 07:18:17;;;;;;;3.65;2.72;;;27.00;99.90;;;;;;7390258;19;20622;-75
2022/06/12 07:20:47;;;;;;;3.90;3.40;;;27.30;99.90;;;;;;7391725;19;20173;-76
2022/06/12 07:23:15;;;;;;;3.58;2.58;;;27.30;99.90;;;;;;7391449;19;20146;-76
2022/06/12 07:25:45;;;;;;;2.70;2.40;;;27.10;99.90;;;;;;7392449;19;20150;-76
2022/06/12 07:28:12;;;;;;;3.08;2.42;;;26.90;99.90;;;;;;7387295;19;20141;-76
2022/06/12 07:30:38;;;;;;;2.92;2.33;;;27.10;99.90;;;;;;7390276;19;20150;-76
2022/06/12 07:33:05;;;;;;;4.63;2.33;;;27.70;99.90;;;;;;7389032;19;20150;-75
2022/06/12 07:35:32;;;;;;;3.95;2.60;;;28.10;99.90;;;;;;7389576;19;20165;-76
2022/06/12 07:37:59;;;;;;;2.63;2.40;;;28.30;99.80;;;;;;7392305;19;20145;-76
2022/06/12 07:40:32;;;;;;;3.05;1.90;;;28.40;99.50;;;;;;7385909;19;20127;-75
2022/06/12 07:42:58;;;;;;;4.95;2.40;;;27.80;99.60;;;;;;7394461;19;20157;-76
2022/06/12 07:45:24;;;;;;;3.35;2.20;;;27.30;99.90;;;;;;7387391;19;20601;-75
2022/06/12 07:47:50;;;;;;;3.22;2.30;;;27.50;99.90;;;;;;7391117;19;20139;-75
2022/06/12 07:50:16;;;;;;;4.47;2.60;;;27.70;99.90;;;;;;7388843;19;20142;-76
2022/06/12 07:52:44;;;;;;;3.50;2.30;;;28.00;99.60;;;;;;7391223;19;20131;-74
2022/06/12 07:55:14;;;;;;;4.30;2.78;;;28.10;99.50;;;;;;7388410;19;20202;-75
2022/06/12 07:57:40;;;;;;;3.95;2.10;;;28.00;99.10;;;;;;7390799;19;20602;-75
2022/06/12 08:00:07;;;;;;;4.13;1.92;;;27.90;99.40;;;;;;7390525;19;20130;-75
2022/06/12 08:02:33;;;;;;;2.65;2.20;;;27.90;99.50;;;;;;7391172;19;20135;-76
2022/06/12 08:04:59;;;;;;;2.50;2.15;;;27.80;99.30;;;;;;7387713;19;20155;-76
2022/06/12 08:07:25;;;;;;;3.03;2.42;;;27.70;99.40;;;;;;7389881;19;20149;-77
2022/06/12 08:09:50;;;;;;;3.85;2.22;;;27.90;99.40;;;;;;7393039;19;20139;-76
2022/06/12 08:12:16;;;;;;;4.55;2.63;;;28.20;98.70;;;;;;7389639;19;20143;-75
2022/06/12 08:14:42;;;;;;;3.35;2.50;;;28.10;98.80;;;;;;7393474;19;20131;-76
2022/06/12 08:17:08;;;;;;;4.90;2.78;;;28.10;98.60;;;;;;7391041;19;20146;-76
2022/06/12 08:22:20;;;;;;;2.53;2.30;;;28.10;98.50;;;;;;7392826;19;20195;-75
2022/06/12 08:24:46;;;;;;;2.40;1.90;;;28.70;98.50;;;;;;7387459;19;20154;-76
2022/06/12 08:27:12;;;;;;;5.72;2.67;;;28.90;97.40;;;;;;7389301;19;20712;-76
2022/06/12 08:29:39;;;;;;;3.30;2.22;;;28.90;97.30;;;;;;7392587;19;20154;-75
2022/06/12 08:32:12;;;;;;;2.63;2.30;;;29.10;97.30;;;;;;7390051;19;20153;-76
2022/06/12 08:34:43;;;;;;;2.53;2.00;;;29.40;96.90;;;;;;7388758;19;20287;-76
2022/06/12 08:37:19;;;;;;;5.22;2.17;;;29.70;96.40;;;;;;7391637;19;20139;-76
2022/06/12 08:39:45;;;;;;;2.80;2.20;;;29.50;96.10;;;;;;7391570;19;20138;-74
2022/06/12 08:42:51;;;;;;;3.92;2.28;;;29.10;96.60;;;;;;7390624;19;20138;-75
2022/06/12 08:45:21;;;;;;;3.15;2.00;;;28.60;96.60;;;;;;7384093;19;20158;-75
2022/06/12 08:48:05;;;;;;;3.28;2.17;;;28.50;96.80;;;;;;7390944;19;20155;-76
2022/06/12 08:50:42;;;;;;;3.38;2.28;;;28.70;96.60;;;;;;7385493;19;20550;-76
2022/06/12 08:53:17;;;;;;;2.35;1.95;;;28.70;96.60;;;;;;7390874;19;20137;-76
2022/06/12 08:55:48;;;;;;;5.65;2.28;;;28.40;96.60;;;;;;7390396;19;20625;-76
2022/06/12 08:58:31;;;;;;;3.90;1.83;;;28.20;96.40;;;;;;7390355;19;20155;-77
2022/06/12 09:00:59;;;;;;;3.33;2.17;;;28.10;96.60;;;;;;7391687;19;20142;-75
2022/06/12 09:03:32;;;;;;;2.47;1.85;;;28.30;96.10;;;;;;7386000;19;20614;-74
2022/06/12 09:06:30;;;;;;;2.40;1.55;;;28.70;95.00;;;;;;7387591;19;20175;-75
2022/06/12 09:09:15;;;;;;;3.63;1.85;;;28.80;94.50;;;;;;7388395;19;20138;-75
2022/06/12 09:11:46;;;;;;;3.05;2.10;;;29.20;94.40;;;;;;7391856;19;20493;-75
2022/06/12 09:14:27;;;;;;;1.98;1.63;;;29.20;94.50;;;;;;7389196;19;20143;-78
2022/06/12 09:17:20;;;;;;;2.92;2.03;;;29.00;94.30;;;;;;7386557;19;20178;-77
2022/06/12 09:20:08;;;;;;;2.67;1.80;;;28.90;94.30;;;;;;7383729;19;20280;-77
2022/06/12 09:23:06;;;;;;;2.70;1.80;;;28.60;94.60;;;;;;7392129;19;20708;-78
2022/06/12 09:25:43;;;;;;;3.72;2.28;;;28.10;94.20;;;;;;7387711;19;20134;-77
2022/06/12 09:28:25;;;;;;;2.50;1.70;;;28.00;94.60;;;;;;7390017;19;20154;-75
2022/06/12 09:31:12;;;;;;;3.30;1.52;;;28.00;94.40;;;;;;7389113;19;20159;-77
2022/06/12 09:34:15;;;;;;;2.75;1.40;;;28.10;94.00;;;;;;7385739;19;20134;-77
2022/06/12 09:37:01;;;;;;;2.17;1.70;;;28.10;93.50;;;;;;7389551;19;20148;-76
2022/06/12 09:39:58;;;;;;;2.95;1.52;;;28.10;93.90;;;;;;7387806;19;20647;-77
2022/06/12 09:42:41;;;;;;;2.78;1.42;;;27.90;93.50;;;;;;7387518;19;20142;-76
2022/06/12 09:45:26;;;;;;;4.15;1.77;;;27.90;93.70;;;;;;7388173;19;20146;-78
2022/06/12 09:48:20;;;;;;;4.50;1.90;;;27.80;94.00;;;;;;7388970;19;20126;-77
2022/06/12 09:51:16;;;;;;;2.85;1.60;;;27.60;94.10;;;;;;7387280;19;20167;-75
2022/06/12 09:54:06;;;;;;;2.60;1.58;;;27.90;93.90;;;;;;7388477;19;20148;-78
2022/06/12 09:56:50;;;;;;;2.88;1.88;;;28.40;93.60;;;;;;7384772;19;20172;-78
2022/06/12 10:00:06;;;;;;;2.47;1.50;;;28.20;93.90;;;;;;7387684;19;20138;-75
2022/06/12 10:02:50;;;;;;;2.40;1.58;;;28.30;94.20;;;;;;7386554;19;20146;-75
2022/06/12 10:05:36;;;;;;;3.83;1.65;;;28.30;93.70;;;;;;7387774;19;20180;-75
2022/06/12 10:08:13;;;;;;;2.00;1.80;;;27.90;93.60;;;;;;7386858;19;20122;-74
2022/06/12 10:10:48;;;;;;;3.08;1.83;;;27.70;93.80;;;;;;7395470;19;20169;-74
2022/06/12 10:13:19;;;;;;;2.10;1.55;;;27.70;94.10;;;;;;7395695;19;20154;-77
2022/06/12 10:15:52;;;;;;;3.30;1.85;;;27.70;93.90;;;;;;7393368;19;20154;-76
2022/06/12 10:18:27;;;;;;;2.85;2.00;;;27.60;94.10;;;;;;7395869;19;20150;-75
2022/06/12 10:21:06;;;;;;;1.90;1.50;;;27.60;94.30;;;;;;7393129;19;20507;-75
2022/06/12 10:23:32;;;;;;;3.03;1.60;;;27.70;93.70;;;;;;7394884;19;20155;-77
2022/06/12 10:26:01;;;;;;;2.47;1.80;;;27.80;93.80;;;;;;7395630;19;20615;-77
2022/06/12 10:28:34;;;;;;;2.60;1.48;;;27.80;93.80;;;;;;7391867;19;20154;-75
2022/06/12 10:31:00;;;;;;;3.13;1.73;;;28.20;93.60;;;;;;7395746;19;20574;-76
2022/06/12 10:33:30;;;;;;;2.15;1.65;;;28.10;93.20;;;;;;7394044;19;20142;-79
2022/06/12 10:35:59;;;;;;;2.92;1.90;;;27.90;93.40;;;;;;7390956;19;20154;-75
2022/06/12 10:38:31;;;;;;;2.28;1.80;;;27.70;93.50;;;;;;7394432;19;20207;-76
2022/06/12 10:41:00;;;;;;;2.47;1.80;;;27.50;93.80;;;;;;7391008;19;20151;-77
2022/06/12 10:43:26;;;;;;;2.72;1.60;;;27.70;93.90;;;;;;7392202;19;20505;-73
2022/06/12 10:46:02;;;;;;;4.55;1.75;;;27.90;93.90;;;;;;7391951;19;20139;-77
2022/06/12 10:48:31;;;;;;;1.77;1.50;;;28.30;93.40;;;;;;7397432;19;20242;-75
2022/06/12 10:51:00;;;;;;;2.35;1.70;;;28.50;92.80;;;;;;7392458;19;20159;-75
2022/06/12 10:53:29;;;;;;;2.38;1.50;;;28.60;92.90;;;;;;7392393;19;20143;-76
2022/06/12 10:56:04;;;;;;;3.58;1.65;;;28.80;92.70;;;;;;7392686;19;20230;-74
2022/06/12 10:58:48;;;;;;;2.53;1.60;;;28.90;92.60;;;;;;7394267;19;20133;-77
2022/06/12 11:01:20;;;;;;;1.67;1.52;;;28.70;92.10;;;;;;7396266;19;20155;-75
2022/06/12 11:04:00;;;;;;;4.32;1.60;;;28.60;92.80;;;;;;7392822;19;20155;-77
2022/06/12 11:06:59;;;;;;;3.97;1.80;;;28.40;92.50;;;;;;7392104;19;20161;-75
2022/06/12 11:09:49;;;;;;;2.28;1.75;;;28.50;92.80;;;;;;7392091;19;20607;-77
2022/06/12 11:12:36;;;;;;;2.50;1.70;;;28.70;92.40;;;;;;7394882;19;20627;-75
2022/06/12 11:15:35;;;;;;;2.83;1.92;;;28.70;92.60;;;;;;7397159;19;20161;-75
2022/06/12 11:18:26;;;;;;;3.33;1.77;;;28.60;92.60;;;;;;7393176;19;20202;-77
2022/06/12 11:21:11;;;;;;;3.90;1.92;;;28.50;92.60;;;;;;7387039;19;20143;-75
2022/06/12 11:23:45;;;;;;;4.15;2.03;;;28.40;92.40;;;;;;7395795;19;20133;-76
2022/06/12 11:26:31;;;;;;;2.42;1.65;;;28.20;92.60;;;;;;7389705;19;20148;-75
2022/06/12 11:29:44;;;;;;;3.40;1.52;;;28.20;93.00;;;;;;7393589;19;20142;-77
2022/06/12 11:32:38;;;;;;;4.50;1.85;;;28.30;92.70;;;;;;7390184;19;20237;-77
2022/06/12 11:35:28;;;;;;;2.63;1.88;;;28.40;92.10;;;;;;7392931;19;20138;-74
2022/06/12 11:38:03;;;;;;;3.35;2.10;;;28.30;92.30;;;;;;7391387;19;20134;-75
2022/06/12 11:40:50;;;;;;;3.67;2.08;;;28.20;92.60;;;;;;7393209;19;20249;-77
2022/06/12 11:43:35;;;;;;;1.77;1.60;;;28.20;92.50;;;;;;7391095;19;20146;-77
2022/06/12 11:46:28;;;;;;;2.35;1.70;;;28.20;92.40;;;;;;7393376;19;20150;-75
2022/06/12 11:49:19;;;;;;;2.55;1.38;;;28.30;92.60;;;;;;7392787;19;20618;-75
2022/06/12 11:52:19;;;;;;;1.98;1.60;;;28.40;92.20;;;;;;7392860;19;20878;-75
2022/06/12 11:55:01;;;;;;;1.80;1.60;;;28.40;92.10;;;;;;7394574;19;20134;-76
2022/06/12 11:57:38;;;;;;;2.85;1.70;;;28.50;92.10;;;;;;7391103;19;20610;-74
2022/06/12 12:00:06;;;;;;;2.92;2.00;;;28.60;91.70;;;;;;7391990;19;20137;-78
2022/06/12 12:03:00;;;;;;;2.70;1.63;;;28.50;92.10;;;;;;7394959;19;20137;-75
2022/06/12 12:05:33;;;;;;;2.17;1.58;;;28.60;92.00;;;;;;7392072;19;20150;-77
2022/06/12 12:08:19;;;;;;;2.40;1.58;;;28.60;92.30;;;;;;7391070;19;20351;-74
2022/06/12 12:10:49;;;;;;;2.03;1.45;;;28.60;91.60;;;;;;7394613;19;20592;-76
2022/06/12 12:13:20;;;;;;;2.17;1.80;;;28.50;91.60;;;;;;7388966;19;20134;-76
2022/06/12 12:16:01;;;;;;;3.25;2.30;;;28.40;91.80;;;;;;7389463;19;20633;-77
2022/06/12 12:18:40;;;;;;;4.30;2.00;;;28.40;91.70;;;;;;7388257;19;20134;-76
2022/06/12 12:21:13;;;;;;;3.08;2.10;;;28.40;92.00;;;;;;7391721;19;20555;-74
2022/06/12 12:23:44;;;;;;;1.90;1.50;;;28.50;91.90;;;;;;7392984;19;20150;-74
2022/06/12 12:26:25;;;;;;;1.92;1.48;;;28.70;91.50;;;;;;7391781;19;20602;-77
2022/06/12 12:28:55;;;;;;;3.35;1.40;;;28.70;91.20;;;;;;7390513;19;20138;-76
2022/06/12 12:31:23;;;;;;;1.95;1.40;;;28.90;91.30;;;;;;7388062;19;20137;-77
2022/06/12 12:33:51;;;;;;;2.92;1.70;;;28.90;91.40;;;;;;7386086;19;20162;-76
2022/06/12 12:42:20;;;;;;;2.85;1.77;;;28.60;91.30;;;;;;7389281;19;20181;-77
2022/06/12 12:44:46;;;;;;;4.07;1.98;;;28.40;91.60;;;;;;7390165;19;20622;-77
2022/06/12 12:47:28;;;;;;;2.40;1.50;;;28.30;91.50;;;;;;7388229;19;20242;-76
2022/06/12 12:50:08;;;;;;;2.20;2.00;;;28.30;91.60;;;;;;7390090;19;20642;-75
2022/06/12 12:53:00;;;;;;;2.53;1.63;;;28.20;91.90;;;;;;7388290;19;20134;-74
2022/06/12 12:55:42;;;;;;;2.13;1.50;;;28.20;91.90;;;;;;7391352;19;20131;-74
2022/06/12 12:58:21;;;;;;;2.15;1.50;;;28.20;91.90;;;;;;7390311;19;20155;-77
2022/06/12 13:00:48;;;;;;;2.17;1.60;;;28.00;91.90;;;;;;7390783;19;20482;-74
2022/06/12 13:03:41;;;;;;;3.22;1.30;;;28.10;92.20;;;;;;7388428;19;20130;-75
2022/06/12 13:06:07;;;;;;;2.70;1.60;;;28.00;92.10;;;;;;7390672;19;20587;-75
2022/06/12 13:08:41;;;;;;;2.03;1.52;;;28.00;92.10;;;;;;7389028;19;20156;-77
2022/06/12 13:11:12;;;;;;;3.20;1.60;;;28.10;92.00;;;;;;7391188;19;20162;-75
2022/06/12 13:13:49;;;;;;;2.47;1.55;;;28.10;92.10;;;;;;7388876;19;20134;-74
2022/06/12 13:16:24;;;;;;;3.28;1.63;;;28.20;92.00;;;;;;7386939;19;20162;-75
2022/06/12 13:19:06;;;;;;;2.45;1.70;;;28.20;92.00;;;;;;7388949;19;20182;-77
2022/06/12 13:22:10;;;;;;;2.53;1.50;;;28.10;92.20;;;;;;7388388;19;20498;-73
2022/06/12 13:24:41;;;;;;;2.17;1.30;;;28.00;92.40;;;;;;7390403;19;20221;-74
2022/06/12 13:27:20;;;;;;;1.67;1.35;;;27.90;92.70;;;;;;7389558;19;20135;-76
2022/06/12 13:29:47;;;;;;;2.05;1.70;;;27.90;92.80;;;;;;7388925;19;20154;-77
2022/06/12 13:32:39;;;;;;;4.50;1.50;;;28.00;92.70;;;;;;7389902;19;20143;-78
2022/06/12 13:35:20;;;;;;;3.78;2.50;;;28.00;92.50;;;;;;7385028;19;20139;-74
2022/06/12 13:37:49;;;;;;;3.13;2.20;;;28.10;92.80;;;;;;7389068;19;20590;-77
2022/06/12 13:40:31;;;;;;;2.80;1.70;;;28.00;92.80;;;;;;7388410;19;20134;-73
2022/06/12 13:43:28;;;;;;;3.38;1.85;;;28.00;92.80;;;;;;7388008;19;20163;-75
2022/06/12 13:46:01;;;;;;;2.53;1.58;;;28.00;92.90;;;;;;7389417;19;20138;-77